Time;durP1;ratioP1;P1;durP2;ratioP2;P2;SDS_P1;SDS_P2;PMS_P1;PMS_P2;Temp;Humidity;BMP_temperature;BMP_pressure;BME280_temperature;BME280_humidity;BME280_pressure;Samples;Min_cycle;Max_cycle;Signal;HPM_P1;HPM_P2
2023/09/20 00:00:40;;;;;;;3.33;1.93;;;;;;;14.98;100.00;96635.28;5111828;28;20207;-57
2023/09/20 00:03:08;;;;;;;4.10;1.77;;;;;;;14.97;100.00;96634.44;5111603;28;20292;-57
2023/09/20 00:05:36;;;;;;;1.67;1.58;;;;;;;14.98;100.00;96628.13;5112778;28;20261;-59
2023/09/20 00:08:05;;;;;;;4.53;1.90;;;;;;;14.93;100.00;96628.63;5112604;28;20205;-57
2023/09/20 00:10:32;;;;;;;2.80;1.40;;;;;;;14.88;100.00;96627.47;5111438;28;20205;-57
2023/09/20 00:12:58;;;;;;;2.50;1.27;;;;;;;14.84;100.00;96626.97;5111345;28;20208;-57
2023/09/20 00:15:26;;;;;;;4.53;1.52;;;;;;;14.84;100.00;96623.50;5112163;28;20201;-57
2023/09/20 00:17:54;;;;;;;2.60;1.50;;;;;;;14.85;100.00;96620.66;5111840;28;20273;-58
2023/09/20 00:20:20;;;;;;;3.67;1.73;;;;;;;14.81;100.00;96616.66;5112259;28;20258;-58
2023/09/20 00:22:47;;;;;;;3.53;1.40;;;;;;;14.76;100.00;96624.34;5111843;28;20216;-57
2023/09/20 00:25:15;;;;;;;2.53;1.60;;;;;;;14.75;100.00;96614.69;5110749;28;20690;-58
2023/09/20 00:27:45;;;;;;;1.58;1.45;;;;;;;14.76;100.00;96613.69;5113122;28;20534;-56
2023/09/20 00:30:14;;;;;;;3.97;1.90;;;;;;;14.73;100.00;96616.72;5062584;28;20286;-56
2023/09/20 00:32:42;;;;;;;2.90;1.77;;;;;;;14.73;100.00;96607.88;5062407;28;20195;-58
2023/09/20 00:35:10;;;;;;;3.60;1.50;;;;;;;14.74;100.00;96606.84;5062626;28;20663;-55
2023/09/20 00:37:37;;;;;;;3.72;1.60;;;;;;;14.72;100.00;96607.06;5062768;28;20322;-57
2023/09/20 00:40:06;;;;;;;2.22;1.60;;;;;;;14.72;100.00;96608.88;5061598;28;20195;-57
2023/09/20 00:42:33;;;;;;;2.47;1.65;;;;;;;14.68;100.00;96613.72;5061240;28;20289;-57
2023/09/20 00:45:02;;;;;;;4.78;1.35;;;;;;;14.63;100.00;96616.03;5061641;28;20211;-57
2023/09/20 00:47:29;;;;;;;2.55;1.70;;;;;;;14.59;100.00;96604.09;5062289;28;20287;-56
2023/09/20 00:49:57;;;;;;;1.80;1.35;;;;;;;14.62;100.00;96611.72;5060757;28;20207;-58
2023/09/20 00:52:27;;;;;;;2.83;1.77;;;;;;;14.62;100.00;96606.41;5060936;28;20207;-57
2023/09/20 00:54:56;;;;;;;2.10;1.30;;;;;;;14.63;100.00;96601.91;5061242;28;20213;-56
2023/09/20 00:57:23;;;;;;;2.40;1.73;;;;;;;14.61;100.00;96609.22;5061207;28;20207;-58
2023/09/20 00:59:49;;;;;;;6.40;1.47;;;;;;;14.60;100.00;96612.88;5061280;28;20203;-57
2023/09/20 01:02:16;;;;;;;1.52;1.42;;;;;;;14.58;100.00;96618.38;5061401;28;20214;-58
2023/09/20 01:04:43;;;;;;;2.85;1.50;;;;;;;14.54;100.00;96611.72;5061676;28;20198;-58
2023/09/20 01:07:11;;;;;;;5.72;1.83;;;;;;;14.49;100.00;96611.38;5060965;28;20327;-58
2023/09/20 01:09:37;;;;;;;3.33;1.60;;;;;;;14.46;100.00;96606.41;5061031;28;20203;-59
2023/09/20 01:12:07;;;;;;;3.03;1.40;;;;;;;14.44;100.00;96616.41;5061059;28;20314;-57
2023/09/20 01:14:33;;;;;;;2.80;1.77;;;;;;;14.44;100.00;96611.09;5060998;28;20198;-59
2023/09/20 01:17:06;;;;;;;3.20;1.43;;;;;;;14.39;100.00;96597.44;5060768;28;20547;-57
2023/09/20 01:19:33;;;;;;;3.07;1.23;;;;;;;14.37;100.00;96610.09;5060280;28;20257;-57
2023/09/20 01:22:00;;;;;;;3.00;1.57;;;;;;;14.35;100.00;96604.09;5061186;28;20213;-57
2023/09/20 01:24:30;;;;;;;2.75;1.70;;;;;;;14.31;100.00;96602.75;5060901;28;20199;-57
2023/09/20 01:26:57;;;;;;;3.03;1.70;;;;;;;14.28;100.00;96601.22;5060589;28;20532;-58
2023/09/20 01:29:23;;;;;;;3.75;1.42;;;;;;;14.25;100.00;96601.56;5094683;28;20233;-57
2023/09/20 01:31:50;;;;;;;2.80;1.53;;;;;;;14.35;100.00;96606.75;5111401;28;20238;-58
2023/09/20 01:34:16;;;;;;;3.45;1.50;;;;;;;14.31;100.00;96597.44;5111555;28;20197;-57
2023/09/20 01:36:43;;;;;;;5.90;1.80;;;;;;;14.27;100.00;96590.78;5111416;28;20193;-58
2023/09/20 01:39:12;;;;;;;3.43;1.67;;;;;;;14.25;100.00;96587.44;5112089;28;20288;-58
2023/09/20 01:41:38;;;;;;;1.50;1.40;;;;;;;14.25;100.00;96582.94;5112165;28;20201;-57
2023/09/20 01:44:06;;;;;;;2.47;1.47;;;;;;;14.28;100.00;96592.41;5112922;28;20197;-62
2023/09/20 01:46:33;;;;;;;4.20;1.60;;;;;;;14.27;100.00;96588.97;5112209;28;20244;-57
2023/09/20 01:48:59;;;;;;;4.80;1.45;;;;;;;14.28;100.00;96581.78;5113568;28;20594;-58
2023/09/20 01:51:26;;;;;;;2.50;1.83;;;;;;;14.24;100.00;96591.13;5121073;28;20216;-58
2023/09/20 01:53:54;;;;;;;5.17;1.47;;;;;;;14.25;100.00;96576.78;5119029;28;20231;-57
2023/09/20 01:56:24;;;;;;;1.73;1.40;;;;;;;14.28;100.00;96581.78;5126278;28;20197;-58
2023/09/20 01:58:50;;;;;;;2.17;1.97;;;;;;;14.30;100.00;96574.47;5125858;28;20258;-59
2023/09/20 02:01:17;;;;;;;2.23;1.43;;;;;;;14.27;100.00;96569.50;5119836;28;20205;-57
2023/09/20 02:03:44;;;;;;;2.23;1.70;;;;;;;14.27;100.00;96575.66;5114022;28;20197;-56
2023/09/20 02:06:11;;;;;;;2.63;1.33;;;;;;;14.23;100.00;96573.50;5113068;28;20221;-56
2023/09/20 02:08:38;;;;;;;1.58;1.48;;;;;;;14.24;100.00;96570.63;5113195;28;20622;-57
2023/09/20 02:11:04;;;;;;;6.40;1.80;;;;;;;14.22;100.00;96574.47;5113135;28;20511;-57
2023/09/20 02:13:32;;;;;;;3.00;1.80;;;;;;;14.22;100.00;96571.81;5115626;28;20262;-56
2023/09/20 02:15:59;;;;;;;4.80;1.80;;;;;;;14.25;100.00;96567.00;5112718;28;20205;-57
2023/09/20 02:18:25;;;;;;;3.40;1.60;;;;;;;14.28;100.00;96571.97;5114536;28;20257;-59
2023/09/20 02:20:52;;;;;;;1.93;1.50;;;;;;;14.25;100.00;96558.19;5112474;28;20198;-56
2023/09/20 02:23:19;;;;;;;2.57;1.50;;;;;;;14.25;100.00;96560.84;5111948;28;20202;-59
2023/09/20 02:25:46;;;;;;;2.50;1.30;;;;;;;14.25;100.00;96566.16;5113140;28;20201;-58
2023/09/20 02:28:13;;;;;;;2.67;1.60;;;;;;;14.22;100.00;96561.19;5112897;28;20217;-59
2023/09/20 02:30:41;;;;;;;2.20;1.40;;;;;;;14.20;100.00;96568.50;5112922;28;20193;-57
2023/09/20 02:33:10;;;;;;;1.27;1.25;;;;;;;14.18;100.00;96565.16;5110452;28;20641;-58
2023/09/20 02:35:37;;;;;;;1.63;1.40;;;;;;;14.17;100.00;96568.84;5113353;28;20232;-58
2023/09/20 02:38:05;;;;;;;1.80;1.50;;;;;;;14.16;100.00;96569.84;5114243;28;20548;-57
2023/09/20 02:40:34;;;;;;;2.77;1.73;;;;;;;14.14;100.00;96563.84;5113182;28;20330;-56
2023/09/20 02:43:04;;;;;;;1.80;1.60;;;;;;;14.13;100.00;96562.19;5113222;28;20231;-56
2023/09/20 02:45:32;;;;;;;5.37;1.73;;;;;;;14.06;100.00;96555.88;5113782;28;20538;-57
2023/09/20 02:48:02;;;;;;;3.13;1.40;;;;;;;14.03;100.00;96557.03;5113621;28;20252;-56
2023/09/20 02:50:29;;;;;;;3.63;1.37;;;;;;;14.00;100.00;96559.19;5113709;28;20220;-57
2023/09/20 02:52:56;;;;;;;3.00;1.73;;;;;;;13.99;100.00;96557.53;5113618;28;20237;-57
2023/09/20 02:55:23;;;;;;;1.77;1.67;;;;;;;13.99;100.00;96552.22;5113983;28;20239;-56
2023/09/20 02:57:52;;;;;;;2.57;1.57;;;;;;;13.99;100.00;96554.88;5115805;28;20202;-58
2023/09/20 03:00:21;;;;;;;1.67;1.43;;;;;;;13.93;100.00;96545.72;5115855;28;20205;-59
2023/09/20 03:02:49;;;;;;;2.33;1.83;;;;;;;13.94;100.00;96545.56;5113899;28;20228;-57
2023/09/20 03:05:17;;;;;;;3.17;1.67;;;;;;;13.92;100.00;96547.53;5113333;28;20261;-57
2023/09/20 03:07:44;;;;;;;2.43;1.73;;;;;;;13.89;100.00;96547.88;5113589;28;20224;-58
2023/09/20 03:10:13;;;;;;;2.03;1.33;;;;;;;13.89;100.00;96539.06;5113506;28;20200;-56
2023/09/20 03:12:41;;;;;;;2.60;1.63;;;;;;;13.88;100.00;96535.63;5113647;28;20205;-57
2023/09/20 03:15:10;;;;;;;1.60;1.50;;;;;;;13.89;100.00;96539.91;5113329;28;20197;-56
2023/09/20 03:17:37;;;;;;;2.13;1.53;;;;;;;13.89;100.00;96547.88;5114756;27;20197;-58
2023/09/20 03:20:12;;;;;;;5.20;1.43;;;;;;;13.90;100.00;96541.59;5118723;28;20193;-56
2023/09/20 03:22:40;;;;;;;4.13;1.47;;;;;;;13.91;100.00;96545.91;5114689;28;20573;-58
2023/09/20 03:25:13;;;;;;;2.10;1.90;;;;;;;13.85;100.00;96551.88;5112930;28;21442;-56
2023/09/20 03:27:42;;;;;;;2.93;1.70;;;;;;;13.82;100.00;96549.53;5113535;28;20209;-57
2023/09/20 03:30:11;;;;;;;3.07;1.50;;;;;;;13.80;100.00;96562.19;5113350;28;20254;-57
2023/09/20 03:32:39;;;;;;;1.67;1.57;;;;;;;13.84;100.00;96562.69;5113704;28;20555;-57
2023/09/20 03:35:08;;;;;;;2.50;1.40;;;;;;;13.87;100.00;96565.84;5112934;28;20649;-57
2023/09/20 03:37:36;;;;;;;3.93;1.63;;;;;;;13.89;100.00;96555.84;5113246;28;20229;-57
2023/09/20 03:40:06;;;;;;;5.80;2.20;;;;;;;13.89;100.00;96555.03;5112227;28;20202;-57
2023/09/20 03:42:32;;;;;;;1.77;1.67;;;;;;;13.89;100.00;96550.53;5113370;28;20220;-56
2023/09/20 03:44:59;;;;;;;1.50;1.40;;;;;;;13.91;100.00;96545.91;5112308;28;20205;-57
2023/09/20 03:47:28;;;;;;;1.50;1.40;;;;;;;13.91;100.00;96550.38;5111646;28;20228;-57
2023/09/20 03:49:54;;;;;;;2.93;1.70;;;;;;;13.89;100.00;96549.72;5112156;28;20233;-57
2023/09/20 03:52:21;;;;;;;2.20;1.60;;;;;;;13.90;100.00;96551.38;5112606;28;20193;-57
2023/09/20 03:54:50;;;;;;;3.97;1.70;;;;;;;13.88;100.00;96548.91;5112213;28;21423;-57
2023/09/20 03:57:18;;;;;;;1.87;1.60;;;;;;;13.87;100.00;96549.06;5112753;28;20227;-56
2023/09/20 03:59:45;;;;;;;5.80;1.70;;;;;;;13.77;100.00;96546.56;5111799;28;20201;-57
2023/09/20 04:02:14;;;;;;;1.80;1.70;;;;;;;13.73;100.00;96561.19;5112437;28;20200;-57
2023/09/20 04:04:40;;;;;;;2.10;1.90;;;;;;;13.76;100.00;96558.19;5112626;28;20255;-56
2023/09/20 04:07:07;;;;;;;2.03;1.60;;;;;;;13.75;100.00;96553.03;5112255;28;20587;-57
2023/09/20 04:09:35;;;;;;;3.67;1.50;;;;;;;13.74;100.00;96546.06;5111878;28;20205;-57
2023/09/20 04:12:02;;;;;;;2.00;1.87;;;;;;;13.74;100.00;96546.06;5112139;28;20210;-58
2023/09/20 04:14:30;;;;;;;1.80;1.70;;;;;;;13.69;100.00;96543.91;5111897;28;20205;-57
2023/09/20 04:16:57;;;;;;;2.10;1.70;;;;;;;13.69;100.00;96543.06;5112147;28;20205;-57
2023/09/20 04:19:24;;;;;;;4.80;2.20;;;;;;;13.72;100.00;96540.06;5111822;28;20212;-57
2023/09/20 04:21:51;;;;;;;2.30;1.60;;;;;;;13.66;100.00;96530.94;5112346;28;20205;-57
2023/09/20 04:24:17;;;;;;;5.67;2.40;;;;;;;13.66;100.00;96528.28;5110763;28;20216;-57
2023/09/20 04:26:44;;;;;;;7.30;4.50;;;;;;;13.68;100.00;96531.59;5111908;28;20221;-56
2023/09/20 04:29:11;;;;;;;1.90;1.80;;;;;;;13.69;100.00;96527.13;5111075;28;20264;-57
2023/09/20 04:31:40;;;;;;;2.30;1.73;;;;;;;13.66;100.00;96538.06;5112381;28;20615;-57
2023/09/20 04:34:07;;;;;;;2.00;1.30;;;;;;;13.69;100.00;96525.28;5111802;28;20220;-57
2023/09/20 04:36:34;;;;;;;2.43;1.60;;;;;;;13.67;100.00;96523.81;5112448;28;20201;-57
2023/09/20 04:39:00;;;;;;;1.93;1.30;;;;;;;13.63;100.00;96520.66;5111511;28;20533;-57
2023/09/20 04:41:27;;;;;;;2.10;1.90;;;;;;;13.62;100.00;96516.31;5110747;28;20245;-58
2023/09/20 04:43:53;;;;;;;3.80;1.53;;;;;;;13.66;100.00;96522.13;5111556;28;20613;-56
2023/09/20 04:46:20;;;;;;;3.10;1.70;;;;;;;13.63;100.00;96517.16;5112724;28;20200;-58
2023/09/20 04:48:48;;;;;;;1.70;1.60;;;;;;;13.61;100.00;96524.44;5112636;28;20270;-57
2023/09/20 04:51:15;;;;;;;1.77;1.67;;;;;;;13.58;100.00;96517.63;5113278;28;20209;-56
2023/09/20 04:53:41;;;;;;;1.80;1.70;;;;;;;13.56;100.00;96516.16;5112266;28;20205;-58
2023/09/20 04:56:08;;;;;;;1.53;1.40;;;;;;;13.57;100.00;96513.31;5111570;28;20216;-57
2023/09/20 04:58:35;;;;;;;1.73;1.60;;;;;;;13.56;100.00;96510.84;5111548;28;20702;-56
2023/09/20 05:01:01;;;;;;;1.53;1.43;;;;;;;13.53;100.00;96517.31;5111669;28;20548;-58
2023/09/20 05:03:28;;;;;;;2.83;1.70;;;;;;;13.57;100.00;96502.69;5112004;28;20259;-58
2023/09/20 05:05:56;;;;;;;2.13;1.60;;;;;;;13.58;100.00;96503.53;5111732;28;20281;-57
2023/09/20 05:08:24;;;;;;;2.20;1.50;;;;;;;13.59;100.00;96497.22;5111328;28;20678;-57
2023/09/20 05:10:52;;;;;;;1.50;1.40;;;;;;;13.56;100.00;96498.38;5111352;28;20508;-57
2023/09/20 05:13:18;;;;;;;2.80;1.50;;;;;;;13.54;100.00;96503.00;5111700;28;20212;-57
2023/09/20 05:15:45;;;;;;;2.10;1.47;;;;;;;13.53;100.00;96505.84;5110752;28;20197;-57
2023/09/20 05:18:13;;;;;;;1.50;1.40;;;;;;;13.53;100.00;96509.34;5110965;28;20197;-57
2023/09/20 05:20:40;;;;;;;1.97;1.83;;;;;;;13.56;100.00;96506.34;5111314;28;20205;-57
2023/09/20 05:23:08;;;;;;;2.90;1.30;;;;;;;13.57;100.00;96505.34;5111345;28;20221;-57
2023/09/20 05:25:35;;;;;;;4.03;1.70;;;;;;;13.57;100.00;96513.31;5110951;28;20197;-55
2023/09/20 05:28:02;;;;;;;3.93;1.80;;;;;;;13.62;100.00;96508.34;5111007;28;20213;-55
2023/09/20 05:30:28;;;;;;;2.00;1.60;;;;;;;13.59;100.00;96511.34;5114475;28;20690;-57
2023/09/20 05:32:55;;;;;;;1.77;1.63;;;;;;;13.65;100.00;96507.19;5114614;28;20617;-55
2023/09/20 05:35:21;;;;;;;1.83;1.60;;;;;;;13.72;100.00;96505.53;5114643;28;20204;-57
2023/09/20 05:37:48;;;;;;;2.00;1.90;;;;;;;13.72;100.00;96501.03;5111972;28;20835;-56
2023/09/20 05:40:18;;;;;;;5.03;2.20;;;;;;;13.70;100.00;96497.72;5111049;28;20205;-57
2023/09/20 05:42:45;;;;;;;4.03;2.10;;;;;;;13.67;100.00;96487.44;5111489;28;20197;-56
2023/09/20 05:45:12;;;;;;;2.03;1.83;;;;;;;13.70;100.00;96497.72;5110889;28;20205;-59
2023/09/20 05:47:39;;;;;;;2.30;2.13;;;;;;;13.74;100.00;96485.78;5109659;28;20224;-57
2023/09/20 05:50:07;;;;;;;3.67;1.83;;;;;;;13.83;100.00;96487.41;5108732;28;20626;-57
2023/09/20 05:52:37;;;;;;;2.03;1.70;;;;;;;13.92;100.00;96478.44;5110887;28;20284;-58
2023/09/20 05:55:04;;;;;;;2.80;2.07;;;;;;;14.03;100.00;96487.09;5110134;28;20225;-57
2023/09/20 05:57:32;;;;;;;2.10;1.90;;;;;;;14.11;100.00;96482.56;5110154;28;20201;-57
2023/09/20 05:59:59;;;;;;;2.30;1.90;;;;;;;14.17;100.00;96481.09;5110054;28;20197;-57
2023/09/20 06:02:26;;;;;;;2.00;1.90;;;;;;;14.22;100.00;96492.03;5110814;28;20193;-57
2023/09/20 06:04:52;;;;;;;2.80;2.20;;;;;;;14.23;100.00;96491.88;5109833;28;20197;-55
2023/09/20 06:07:19;;;;;;;2.00;1.90;;;;;;;14.22;100.00;96486.72;5110561;28;20224;-56
2023/09/20 06:09:45;;;;;;;2.20;2.10;;;;;;;14.26;100.00;96488.03;5111615;28;20209;-57
2023/09/20 06:12:12;;;;;;;2.50;2.23;;;;;;;14.32;100.00;96493.50;5114888;28;20193;-57
2023/09/20 06:14:40;;;;;;;2.93;2.27;;;;;;;14.39;100.00;96489.19;5114276;28;20201;-57
2023/09/20 06:17:06;;;;;;;4.10;3.10;;;;;;;14.47;100.00;96490.16;5114538;28;20216;-57
2023/09/20 06:19:35;;;;;;;2.90;2.50;;;;;;;14.51;100.00;96481.69;5114481;28;20205;-57
2023/09/20 06:22:01;;;;;;;2.93;2.70;;;;;;;14.59;100.00;96478.16;5114475;28;20724;-57
2023/09/20 06:24:32;;;;;;;3.03;2.73;;;;;;;14.88;100.00;96478.38;5114242;28;20215;-57
2023/09/20 06:26:59;;;;;;;3.10;2.80;;;;;;;15.72;100.00;96482.88;5114096;28;20201;-57
2023/09/20 06:29:26;;;;;;;3.05;2.75;;;;;;;16.63;100.00;96470.19;5113875;28;20233;-57
2023/09/20 06:31:54;;;;;;;3.28;2.63;;;;;;;17.76;100.00;96471.31;5113603;28;20637;-59
2023/09/20 06:34:22;;;;;;;3.22;2.88;;;;;;;18.74;100.00;96465.88;5113911;28;20236;-57
2023/09/20 06:36:48;;;;;;;4.57;3.10;;;;;;;19.12;100.00;96466.28;5113621;28;20266;-57
2023/09/20 06:39:18;;;;;;;2.85;2.63;;;;;;;19.86;100.00;96472.47;5113685;28;20205;-58
2023/09/20 06:41:45;;;;;;;2.58;2.38;;;;;;;20.37;99.59;96466.50;5113669;28;20201;-59
2023/09/20 06:44:13;;;;;;;3.92;2.45;;;;;;;21.01;94.92;96460.38;5113575;28;20537;-57
2023/09/20 06:46:42;;;;;;;3.30;2.95;;;;;;;21.00;94.44;96464.94;5113215;28;20594;-57
2023/09/20 06:49:10;;;;;;;5.40;2.88;;;;;;;21.65;90.82;96462.97;5113880;28;20221;-58
2023/09/20 06:51:36;;;;;;;5.20;2.95;;;;;;;22.33;86.31;96461.25;5114071;28;20201;-57
2023/09/20 06:54:03;;;;;;;7.22;3.13;;;;;;;22.43;83.53;96469.66;5113451;28;20209;-57
2023/09/20 06:56:29;;;;;;;8.65;3.13;;;;;;;22.41;85.18;96466.38;5113082;28;20201;-56
2023/09/20 06:58:56;;;;;;;5.38;3.63;;;;;;;22.15;83.18;96466.59;5114062;28;20197;-56
2023/09/20 07:01:25;;;;;;;3.88;2.60;;;;;;;21.26;87.53;96467.53;5113351;28;20193;-58
2023/09/20 07:03:53;;;;;;;3.08;2.88;;;;;;;20.50;92.59;96461.13;5113953;28;20211;-57
2023/09/20 07:06:20;;;;;;;3.60;2.72;;;;;;;19.57;100.00;96461.28;5113154;28;20625;-57
2023/09/20 07:08:47;;;;;;;6.75;3.10;;;;;;;19.27;100.00;96455.41;5112617;28;20695;-55
2023/09/20 07:11:15;;;;;;;5.07;3.10;;;;;;;18.79;100.00;96447.38;5113495;28;20209;-57
2023/09/20 07:13:42;;;;;;;6.43;3.03;;;;;;;18.60;100.00;96453.44;5113781;28;20205;-57
2023/09/20 07:16:10;;;;;;;8.93;3.50;;;;;;;18.52;100.00;96461.66;5113015;27;20644;-57
2023/09/20 07:18:36;;;;;;;6.97;3.42;;;;;;;18.33;100.00;96456.94;5099809;28;20205;-57
2023/09/20 07:21:04;;;;;;;5.20;3.80;;;;;;;18.20;100.00;96463.03;5123489;28;20208;-57
2023/09/20 07:23:34;;;;;;;5.60;3.80;;;;;;;18.17;100.00;96462.59;5120388;28;20193;-56
2023/09/20 07:26:01;;;;;;;4.05;3.63;;;;;;;17.97;100.00;96464.28;5112811;28;20209;-58
2023/09/20 07:28:27;;;;;;;7.25;3.67;;;;;;;18.05;100.00;96461.47;5113218;28;20239;-58
2023/09/20 07:30:55;;;;;;;6.82;3.70;;;;;;;18.05;100.00;96459.63;5112456;28;20197;-58
2023/09/20 07:33:23;;;;;;;5.07;3.47;;;;;;;18.07;100.00;96460.25;5113235;28;20212;-57
2023/09/20 07:35:58;;;;;;;7.53;3.97;;;;;;;18.05;100.00;96458.78;5113273;28;20201;-57
2023/09/20 07:38:27;;;;;;;4.90;3.25;;;;;;;17.93;100.00;96458.47;5117758;28;20518;-57
2023/09/20 07:41:02;;;;;;;4.75;3.08;;;;;;;18.01;100.00;96449.50;5116967;28;20220;-58
2023/09/20 07:43:29;;;;;;;4.50;3.40;;;;;;;17.99;100.00;96456.91;5118689;28;20220;-57
2023/09/20 07:45:56;;;;;;;5.40;3.08;;;;;;;18.00;100.00;96451.34;5113554;28;20586;-56
2023/09/20 07:48:27;;;;;;;4.40;3.05;;;;;;;17.95;100.00;96443.09;5111484;28;20652;-58
2023/09/20 07:50:54;;;;;;;3.85;2.95;;;;;;;17.95;100.00;96450.28;5114118;28;20197;-56
2023/09/20 07:53:21;;;;;;;3.88;2.58;;;;;;;18.05;100.00;96445.41;5113366;28;20205;-57
2023/09/20 07:56:00;;;;;;;3.45;2.72;;;;;;;18.02;100.00;96441.28;5113970;28;20213;-56
2023/09/20 07:58:27;;;;;;;5.15;3.03;;;;;;;18.03;100.00;96437.56;5113453;28;20798;-56
2023/09/20 08:00:56;;;;;;;3.90;3.13;;;;;;;18.10;100.00;96438.47;5112867;28;20220;-57
2023/09/20 08:03:23;;;;;;;6.75;3.53;;;;;;;18.15;100.00;96440.53;5112129;28;20609;-56
2023/09/20 08:05:50;;;;;;;3.63;3.33;;;;;;;18.20;100.00;96444.31;5112419;28;20250;-57
2023/09/20 08:08:18;;;;;;;7.40;3.95;;;;;;;18.25;100.00;96447.22;5112131;28;20253;-56
2023/09/20 08:10:45;;;;;;;6.15;4.30;;;;;;;18.25;100.00;96438.34;5112187;28;20208;-57
2023/09/20 08:13:16;;;;;;;5.10;4.43;;;;;;;18.29;100.00;96434.25;5113088;28;20327;-58
2023/09/20 08:15:43;;;;;;;5.10;3.83;;;;;;;18.37;100.00;96428.75;5112589;28;20201;-56
2023/09/20 08:20:54;;;;;;;4.03;3.50;;;;;;;18.56;100.00;96425.41;5112709;28;20208;-56
2023/09/20 09:01:47;;;;;;;5.20;3.05;;;;;;;21.04;100.00;96422.31;5111739;28;20641;-56
2023/09/20 09:04:17;;;;;;;6.72;3.33;;;;;;;21.15;100.00;96424.38;5111947;28;20636;-58
2023/09/20 09:06:43;;;;;;;3.17;2.80;;;;;;;21.37;100.00;96414.09;5112428;28;20274;-57
2023/09/20 09:09:10;;;;;;;3.95;2.90;;;;;;;21.69;100.00;96416.56;5111705;28;20228;-56
2023/09/20 09:11:37;;;;;;;4.55;2.70;;;;;;;21.98;100.00;96411.63;5111466;28;20208;-58
2023/09/20 09:14:03;;;;;;;4.38;2.78;;;;;;;22.12;98.96;96415.84;5111890;28;20201;-58
2023/09/20 09:16:32;;;;;;;2.67;2.45;;;;;;;22.29;96.70;96403.47;5111668;28;20201;-56
2023/09/20 09:19:01;;;;;;;4.82;2.80;;;;;;;22.28;96.70;96409.91;5111386;28;20185;-58
2023/09/20 09:21:27;;;;;;;7.70;2.50;;;;;;;22.28;93.97;96407.22;5111992;28;20186;-58
2023/09/20 09:23:54;;;;;;;3.50;2.47;;;;;;;22.39;92.80;96405.69;5110941;28;20208;-58
2023/09/20 09:26:20;;;;;;;5.68;2.85;;;;;;;22.48;94.73;96402.47;5111912;28;20197;-57
2023/09/20 09:28:47;;;;;;;5.13;2.70;;;;;;;22.53;89.98;96401.78;5110819;28;20346;-57
2023/09/20 09:31:14;;;;;;;2.83;2.38;;;;;;;22.72;92.53;96401.59;5112146;28;20197;-56
2023/09/20 09:33:41;;;;;;;3.55;2.20;;;;;;;23.01;92.39;96401.88;5111634;28;20197;-57
2023/09/20 09:36:10;;;;;;;5.47;2.95;;;;;;;23.25;90.07;96407.16;5111584;28;20642;-57
2023/09/20 09:38:39;;;;;;;3.58;2.63;;;;;;;23.02;88.57;96401.66;5111887;28;20242;-57
2023/09/20 09:41:08;;;;;;;2.75;2.55;;;;;;;23.02;87.59;96396.28;5111983;28;20247;-57
2023/09/20 09:43:37;;;;;;;4.60;2.72;;;;;;;23.21;88.84;96389.78;5113171;28;20207;-55
2023/09/20 09:46:08;;;;;;;2.35;2.25;;;;;;;23.30;91.59;96382.19;5116013;28;20283;-57
2023/09/20 09:48:35;;;;;;;3.35;2.20;;;;;;;23.82;91.13;96394.13;5115721;28;20220;-57
2023/09/20 09:51:01;;;;;;;2.20;2.10;;;;;;;23.99;89.98;96386.97;5117168;28;20215;-60
2023/09/20 09:53:31;;;;;;;3.10;2.20;;;;;;;24.29;88.09;96384.22;5116273;28;20196;-58
2023/09/20 09:55:59;;;;;;;3.47;2.75;;;;;;;24.24;85.32;96382.22;5115607;28;20197;-58
2023/09/20 09:58:25;;;;;;;2.60;2.40;;;;;;;24.52;85.78;96381.50;5115762;28;20211;-59
2023/09/20 10:00:53;;;;;;;5.80;2.90;;;;;;;24.49;85.39;96381.97;5116467;28;20216;-57
2023/09/20 10:03:27;;;;;;;2.88;2.35;;;;;;;24.27;81.97;96376.34;5115198;28;20204;-57
2023/09/20 10:06:02;;;;;;;2.30;2.10;;;;;;;24.67;83.66;96372.88;5115836;28;20208;-58
2023/09/20 10:08:31;;;;;;;2.85;2.58;;;;;;;24.60;82.62;96370.31;5120473;28;20223;-57
2023/09/20 10:11:01;;;;;;;2.28;2.17;;;;;;;24.48;81.64;96374.91;5119012;28;20208;-57
2023/09/20 10:13:29;;;;;;;3.90;2.15;;;;;;;24.69;83.06;96377.00;5116554;28;20201;-57
2023/09/20 10:15:57;;;;;;;3.58;2.63;;;;;;;24.62;81.16;96364.69;5114703;28;20209;-57
2023/09/20 10:18:24;;;;;;;2.50;1.92;;;;;;;24.89;82.45;96371.25;5116255;28;20201;-55
2023/09/20 10:21:10;;;;;;;3.63;1.95;;;;;;;25.06;82.69;96357.78;5118652;28;20233;-57
2023/09/20 10:23:38;;;;;;;2.53;2.28;;;;;;;25.45;81.72;96365.03;5114517;28;20266;-56
2023/09/20 10:26:11;;;;;;;2.47;2.10;;;;;;;25.72;82.15;96349.00;5113879;28;20201;-58
2023/09/20 10:28:41;;;;;;;3.38;2.40;;;;;;;25.58;78.18;96351.19;5113307;28;20232;-57
2023/09/20 10:31:07;;;;;;;2.47;2.28;;;;;;;25.46;78.09;96346.88;5114512;28;20214;-56
2023/09/20 10:33:46;;;;;;;3.65;2.08;;;;;;;25.60;77.83;96350.97;5114831;28;20300;-56
2023/09/20 10:36:15;;;;;;;4.07;2.20;;;;;;;25.51;75.20;96342.41;5114317;28;20204;-57
2023/09/20 10:38:44;;;;;;;2.17;1.92;;;;;;;25.55;79.44;96340.84;5114703;28;20262;-57
2023/09/20 10:41:12;;;;;;;2.40;2.17;;;;;;;25.88;78.67;96337.34;5114533;28;20246;-58
2023/09/20 10:43:48;;;;;;;2.83;2.15;;;;;;;25.83;73.74;96328.31;5114946;28;20220;-57
2023/09/20 10:46:18;;;;;;;2.00;1.90;;;;;;;26.09;73.41;96333.06;5113743;28;20688;-56
2023/09/20 10:48:49;;;;;;;1.75;1.65;;;;;;;26.16;75.74;96331.00;5114221;28;20247;-58
2023/09/20 10:51:43;;;;;;;1.92;1.83;;;;;;;26.17;77.04;96327.25;5114235;28;20526;-57
2023/09/20 10:54:25;;;;;;;1.75;1.65;;;;;;;26.27;75.22;96322.00;5114253;28;20197;-57
2023/09/20 10:57:03;;;;;;;5.45;2.28;;;;;;;26.08;74.85;96315.16;5113243;28;20640;-57
2023/09/20 10:59:30;;;;;;;3.10;1.80;;;;;;;26.28;73.12;96318.22;5114135;28;20207;-57
2023/09/20 11:01:59;;;;;;;1.92;1.80;;;;;;;26.19;73.42;96317.00;5113855;28;20654;-57
2023/09/20 11:04:28;;;;;;;2.70;1.90;;;;;;;26.22;70.53;96308.34;5113661;28;20657;-58
2023/09/20 11:06:56;;;;;;;2.17;1.80;;;;;;;25.99;68.42;96303.94;5114235;28;20209;-58
2023/09/20 11:09:30;;;;;;;2.67;1.90;;;;;;;26.19;72.10;96306.97;5113504;28;20225;-58
2023/09/20 11:12:01;;;;;;;4.22;1.90;;;;;;;26.37;70.34;96302.34;5114069;28;20192;-58
2023/09/20 11:14:28;;;;;;;3.15;1.80;;;;;;;26.32;70.62;96299.56;5113738;28;20193;-57
2023/09/20 11:16:56;;;;;;;3.13;2.25;;;;;;;26.22;71.02;96289.38;5113564;28;20583;-57
2023/09/20 11:19:25;;;;;;;2.63;1.70;;;;;;;26.40;74.44;96293.69;5113096;28;20621;-57
2023/09/20 11:21:52;;;;;;;2.22;1.85;;;;;;;26.66;70.84;96291.06;5113433;28;20196;-56
2023/09/20 11:24:19;;;;;;;2.30;1.98;;;;;;;26.67;69.46;96290.00;5112821;28;20716;-56
2023/09/20 11:26:48;;;;;;;4.03;1.88;;;;;;;26.64;70.16;96286.97;5113494;28;20515;-58
2023/09/20 11:29:16;;;;;;;2.35;1.92;;;;;;;26.79;70.50;96289.03;5112985;28;20325;-57
2023/09/20 11:31:46;;;;;;;2.00;1.50;;;;;;;26.76;68.24;96289.53;5113214;28;20209;-58
2023/09/20 11:34:13;;;;;;;2.03;1.92;;;;;;;27.13;69.54;96279.69;5113284;28;20228;-57
2023/09/20 11:36:40;;;;;;;2.22;1.98;;;;;;;27.46;69.66;96275.94;5112792;28;20271;-57
2023/09/20 11:39:07;;;;;;;2.42;1.58;;;;;;;27.25;66.10;96272.19;5111999;28;20692;-56
2023/09/20 11:41:35;;;;;;;1.67;1.58;;;;;;;27.29;68.41;96283.38;5113273;28;20205;-55
2023/09/20 11:44:03;;;;;;;2.30;1.60;;;;;;;27.32;68.84;96272.81;5115378;28;20644;-57
2023/09/20 11:46:33;;;;;;;1.95;1.80;;;;;;;27.43;66.54;96271.00;5115074;28;20564;-57
2023/09/20 11:48:59;;;;;;;3.80;1.98;;;;;;;27.31;70.71;96265.75;5113862;28;20225;-57
2023/09/20 11:51:26;;;;;;;1.95;1.80;;;;;;;27.57;66.84;96264.09;5112552;28;20205;-58
2023/09/20 11:53:52;;;;;;;2.65;1.80;;;;;;;27.40;70.40;96258.78;5112702;28;20636;-56
2023/09/20 11:56:24;;;;;;;1.70;1.40;;;;;;;27.49;71.20;96251.81;5112543;28;20220;-57
2023/09/20 11:58:51;;;;;;;2.78;1.63;;;;;;;27.27;69.88;96255.66;5113156;28;20250;-57
2023/09/20 12:01:24;;;;;;;2.03;1.75;;;;;;;27.40;70.34;96249.81;5112357;28;20197;-58
2023/09/20 12:03:51;;;;;;;2.35;1.60;;;;;;;27.30;68.65;96247.81;5112956;28;20215;-56
2023/09/20 12:06:18;;;;;;;3.95;1.80;;;;;;;27.27;67.11;96247.50;5112148;28;20266;-57
2023/09/20 12:08:45;;;;;;;3.75;1.80;;;;;;;27.21;68.71;96244.75;5112226;28;20220;-57
2023/09/20 12:11:11;;;;;;;2.45;1.65;;;;;;;27.23;70.47;96238.25;5112397;28;20206;-58